Farmingdale, NJ

3:39 PM EST on February 10, 2016 (GMT -0500)
Allaire

Weather History for KBLM - February, 2011

Change the Weather History Date:

Thursday, February 3, 2011

  Actual Average Record
Temperature  
Mean Temperature 26 °F -  
Max Temperature 30 °F 37 °F 62 °F (2006)
Min Temperature 21 °F 25 °F 12 °F (2015)
Degree Days  
Heating Degree Days 38    
Moisture  
Dew Point 7 °F    
Average Humidity 41    
Maximum Humidity 47    
Minimum Humidity 34    
Precipitation  
Precipitation 0.00 in - - ()
Sea Level Pressure  
Sea Level Pressure 30.28 in    
Wind  
Wind Speed 13 mph (WNW)    
Max Wind Speed 21 mph    
Max Gust Speed 28 mph    
Visibility 10 miles    
Events      
Averages and records for this station are not official NWS values.
T = Trace of Precipitation, MM = Missing Value Source: NWS Daily Summary

Daily Weather History Graph

Daily Weather History Graph

Search for Another Location

Airport or City:

Trip Planner

Search our weather history database for the weather conditions in past years. The results will help you decide how hot, cold, wet, or windy it might be!

Date:

Astronomy

Feb. 03, 2011 Rise Set
Actual Time 7:03 AM EST 5:17 PM EST
Civil Twilight 6:35 AM EST 5:45 PM EST
Nautical Twilight 6:02 AM EST 6:18 PM EST
Astronomical Twilight 5:30 AM EST 6:50 PM EST
Moon 7:03 AM EST (2/3) 6:09 PM EST (2/3)
Length of Visible Light 11h 10m
Length of Day
10h 13m
New Moon, 0% of the Moon is Illuminated
Feb 3
New Moon
Feb 11
First Quarter
Feb 18
Full
Feb 24
Last Quarter
Mar 4
New

Hourly Weather History & Observations

Time (EST) Temp. Windchill Dew Point Humidity Pressure Visibility Wind Dir Wind Speed Gust Speed Precip Events Conditions
12:15 AM 30.2 °F 19.3 °F 10.4 °F 44% 30.04 in - WNW 15.0 mph 26.5 mph N/A   Overcast
12:35 AM 30.2 °F 20.2 °F 10.4 °F 44% 30.05 in - West 12.7 mph 20.7 mph N/A   Overcast
1:15 AM 30.2 °F 18.9 °F 12.2 °F 47% 30.06 in - WNW 16.1 mph 26.5 mph N/A   Mostly Cloudy
1:35 AM 30.2 °F 19.8 °F 10.4 °F 44% 30.07 in - WNW 13.8 mph 24.2 mph N/A   Scattered Clouds
1:55 AM 30.2 °F 19.3 °F 10.4 °F 44% 30.08 in - West 15.0 mph 19.6 mph N/A   Mostly Cloudy
2:15 AM 30.2 °F 20.8 °F 10.4 °F 44% 30.10 in - West 11.5 mph 21.9 mph N/A   Overcast
2:35 AM 30.2 °F 18.9 °F 10.4 °F 44% 30.10 in - West 16.1 mph 23.0 mph N/A   Overcast
2:55 AM 30.2 °F 18.5 °F 10.4 °F 44% 30.12 in - West 17.3 mph 21.9 mph N/A   Overcast
3:15 AM 30.2 °F 19.8 °F 10.4 °F 44% 30.13 in - West 13.8 mph 20.7 mph N/A   Overcast
3:35 AM 28.4 °F 15.1 °F 10.4 °F 47% 30.14 in - WNW 20.7 mph 27.6 mph N/A   Overcast
3:55 AM 28.4 °F 15.8 °F 10.4 °F 47% 30.14 in - WNW 18.4 mph 25.3 mph N/A   Overcast
4:15 AM 28.4 °F 17.5 °F 8.6 °F 43% 30.14 in - WNW 13.8 mph 23.0 mph N/A   Overcast
4:35 AM 28.4 °F 17.0 °F 8.6 °F 43% 30.16 in - WNW 15.0 mph 24.2 mph N/A   Overcast
4:55 AM 28.4 °F 18.0 °F 8.6 °F 43% 30.17 in - WNW 12.7 mph 21.9 mph N/A   Overcast
5:15 AM 28.4 °F 17.0 °F 8.6 °F 43% 30.18 in - WNW 15.0 mph - N/A   Overcast
5:35 AM 28.4 °F 17.0 °F 8.6 °F 43% 30.19 in - WNW 15.0 mph - N/A   Overcast
5:55 AM 28.4 °F 18.5 °F 8.6 °F 43% 30.20 in - WNW 11.5 mph 17.3 mph N/A   Overcast
6:15 AM 26.6 °F 16.2 °F 8.6 °F 47% 30.21 in - WNW 11.5 mph 17.3 mph N/A   Overcast
6:35 AM 26.6 °F 14.3 °F 8.6 °F 47% 30.22 in - NW 16.1 mph 20.7 mph N/A   Overcast
7:15 AM 24.8 °F 12.4 °F 3.2 °F 40% 30.25 in 10.0 mi NW 15.0 mph 23.0 mph N/A   Scattered Clouds
7:35 AM 24.8 °F 12.9 °F 3.2 °F 40% 30.27 in 10.0 mi NW 13.8 mph 19.6 mph N/A   Mostly Cloudy
7:55 AM 24.8 °F 13.4 °F 3.2 °F 40% 30.28 in 10.0 mi WNW 12.7 mph 20.7 mph N/A   Mostly Cloudy
8:15 AM 24.8 °F 12.4 °F 3.2 °F 40% 30.30 in 10.0 mi NW 15.0 mph 19.6 mph N/A   Mostly Cloudy
8:35 AM 24.8 °F 12.9 °F 3.2 °F 40% 30.31 in 10.0 mi NW 13.8 mph 20.7 mph N/A   Mostly Cloudy
8:55 AM 24.8 °F 11.1 °F 3.2 °F 40% 30.32 in 10.0 mi WNW 18.4 mph 24.2 mph N/A   Partly Cloudy
9:15 AM 24.8 °F 11.9 °F 5.0 °F 43% 30.32 in - NW 16.1 mph 23.0 mph N/A   Mostly Cloudy
9:35 AM 26.6 °F 13.8 °F 5.0 °F 40% 30.33 in - WNW 17.3 mph 21.9 mph N/A   Mostly Cloudy
10:15 AM 26.6 °F 15.7 °F 5.0 °F 40% 30.34 in - WNW 12.7 mph 19.6 mph N/A   Mostly Cloudy
10:35 AM 26.6 °F 16.2 °F 6.8 °F 43% 30.34 in - NW 11.5 mph 19.6 mph N/A   Mostly Cloudy
10:55 AM 26.6 °F 15.2 °F 6.8 °F 43% 30.34 in - WNW 13.8 mph 20.7 mph N/A   Scattered Clouds
11:15 AM 26.6 °F 15.7 °F 6.8 °F 43% 30.35 in - WNW 12.7 mph 21.9 mph N/A   Partly Cloudy
11:35 AM 28.4 °F 17.5 °F 6.8 °F 40% 30.34 in - NW 13.8 mph 23.0 mph N/A   Partly Cloudy
11:55 AM 28.4 °F 17.5 °F 6.8 °F 40% 30.35 in - NW 13.8 mph 18.4 mph N/A   Clear
12:15 PM 28.4 °F 19.1 °F 6.8 °F 40% 30.33 in - WNW 10.4 mph 23.0 mph N/A   Clear
12:35 PM 28.4 °F 17.0 °F 6.8 °F 40% 30.32 in - WNW 15.0 mph 21.9 mph N/A   Clear
12:55 PM 28.4 °F 16.6 °F 6.8 °F 40% 30.32 in - NW 16.1 mph 23.0 mph N/A   Clear
1:15 PM 28.4 °F 17.0 °F 8.6 °F 43% 30.32 in - WNW 15.0 mph 24.2 mph N/A   Clear
1:55 PM 28.4 °F 18.0 °F 8.6 °F 43% 30.31 in - NW 12.7 mph 23.0 mph N/A   Clear
2:15 PM 28.4 °F 18.0 °F 8.6 °F 43% 30.32 in - NW 12.7 mph 23.0 mph N/A   Clear
2:35 PM 30.2 °F 20.8 °F 8.6 °F 40% 30.31 in - WNW 11.5 mph - N/A   Clear
2:55 PM 30.2 °F 19.8 °F 8.6 °F 40% 30.32 in - NW 13.8 mph 17.3 mph N/A   Clear
3:15 PM 30.2 °F 19.3 °F 8.6 °F 40% 30.32 in - NW 15.0 mph 19.6 mph N/A   Clear
3:35 PM 30.2 °F 20.2 °F 8.6 °F 40% 30.33 in - WNW 12.7 mph - N/A   Clear
3:55 PM 30.2 °F 19.3 °F 6.8 °F 37% 30.33 in - WNW 15.0 mph - N/A   Clear
4:15 PM 30.2 °F 19.8 °F 6.8 °F 37% 30.33 in - WNW 13.8 mph 20.7 mph N/A   Clear
4:35 PM 30.2 °F 21.3 °F 6.8 °F 37% 30.35 in - NW 10.4 mph - N/A   Clear
4:55 PM 30.2 °F 21.3 °F 6.8 °F 37% 30.35 in - WNW 10.4 mph - N/A   Clear
5:15 PM 30.2 °F 22.6 °F 6.8 °F 37% 30.35 in - WNW 8.1 mph - N/A   Clear
5:35 PM 28.4 °F - 5.0 °F 37% 30.36 in - Calm Calm - N/A   Clear
5:55 PM 28.4 °F - 3.2 °F 34% 30.36 in - Calm Calm - N/A   Clear
6:15 PM 28.4 °F 24.6 °F 3.2 °F 34% 30.36 in - West 3.5 mph - N/A   Clear
6:35 PM 26.6 °F 21.2 °F 3.2 °F 37% 30.36 in - West 4.6 mph - N/A   Clear
6:55 PM 26.6 °F 20.0 °F 3.2 °F 37% 30.36 in - West 5.8 mph - N/A   Clear
7:15 PM 26.6 °F 20.0 °F 3.2 °F 37% 30.36 in - West 5.8 mph - N/A   Clear
7:35 PM 26.6 °F 21.2 °F 3.2 °F 37% 30.38 in - WSW 4.6 mph - N/A   Clear
7:55 PM 24.8 °F 19.1 °F 3.2 °F 40% 30.38 in 10.0 mi West 4.6 mph - N/A   Clear
8:15 PM 24.8 °F 19.1 °F 3.2 °F 40% 30.38 in 10.0 mi West 4.6 mph - N/A   Clear
8:35 PM 24.8 °F 19.1 °F 3.2 °F 40% 30.39 in 10.0 mi West 4.6 mph - N/A   Clear
8:55 PM 24.8 °F 19.1 °F 3.2 °F 40% 30.38 in 10.0 mi West 4.6 mph - N/A   Clear
9:15 PM 24.8 °F 17.9 °F 3.2 °F 40% 30.38 in 10.0 mi WNW 5.8 mph - N/A   Clear
9:35 PM 23.0 °F 17.0 °F 3.2 °F 43% 30.38 in 10.0 mi West 4.6 mph - N/A   Clear
9:55 PM 23.0 °F 17.0 °F 3.2 °F 43% 30.38 in 10.0 mi West 4.6 mph - N/A   Clear
10:15 PM 21.2 °F 14.9 °F 3.2 °F 46% 30.38 in 10.0 mi WNW 4.6 mph - N/A   Clear
10:35 PM 23.0 °F 15.8 °F 3.2 °F 43% 30.38 in 10.0 mi West 5.8 mph - N/A   Clear
10:55 PM 21.2 °F 16.4 °F 3.2 °F 46% 30.38 in 10.0 mi West 3.5 mph - N/A   Clear
11:15 PM 21.2 °F 13.6 °F 3.2 °F 46% 30.39 in 10.0 mi West 5.8 mph - N/A   Clear
11:35 PM 21.2 °F 13.6 °F 3.2 °F 46% 30.39 in 10.0 mi West 5.8 mph - N/A   Clear
11:55 PM 21.2 °F 13.6 °F 3.2 °F 46% 30.38 in 10.0 mi West 5.8 mph - N/A   Clear